Time;durP1;ratioP1;P1;durP2;ratioP2;P2;SDS_P1;SDS_P2;PMS_P1;PMS_P2;Temp;Humidity;BMP_temperature;BMP_pressure;BME280_temperature;BME280_humidity;BME280_pressure;Samples;Min_cycle;Max_cycle;Signal;HPM_P1;HPM_P2
2021/10/21 00:00:34;;;;;;;3.67;2.00;;;13.20;99.90;;;;;;5112781;28;20237;-81
2021/10/21 00:03:01;;;;;;;6.33;2.30;;;13.20;99.90;;;;;;5114265;28;20270;-81
2021/10/21 00:05:26;;;;;;;4.73;1.83;;;13.30;99.90;;;;;;5113923;28;20594;-80
2021/10/21 00:07:52;;;;;;;6.40;2.37;;;13.30;99.90;;;;;;5114252;28;20456;-80
2021/10/21 00:10:18;;;;;;;3.27;2.40;;;13.40;99.90;;;;;;5112654;28;20164;-81
2021/10/21 00:12:44;;;;;;;4.10;1.73;;;13.30;99.90;;;;;;5114167;28;20265;-81
2021/10/21 00:15:10;;;;;;;5.13;2.63;;;13.30;99.90;;;;;;5114040;28;20473;-81
2021/10/21 00:17:36;;;;;;;6.03;2.80;;;13.30;99.90;;;;;;5109616;28;20570;-82
2021/10/21 00:20:08;;;;;;;5.77;1.70;;;13.30;99.90;;;;;;5113588;28;20420;-81
2021/10/21 00:22:36;;;;;;;4.20;2.50;;;13.30;99.90;;;;;;5096045;28;20647;-81
2021/10/21 00:25:03;;;;;;;4.23;2.20;;;13.30;99.90;;;;;;5113714;28;20539;-81
2021/10/21 00:27:28;;;;;;;3.03;1.70;;;13.30;99.90;;;;;;5113161;28;20447;-81
2021/10/21 00:29:54;;;;;;;4.67;1.83;;;13.20;99.90;;;;;;5113941;28;20420;-81
2021/10/21 00:32:19;;;;;;;5.67;2.37;;;13.20;99.90;;;;;;5113966;28;20206;-81
2021/10/21 00:34:45;;;;;;;2.63;1.60;;;13.20;99.90;;;;;;5097873;28;20184;-81
2021/10/21 00:37:10;;;;;;;3.90;2.17;;;13.20;99.90;;;;;;5099826;28;20186;-81
2021/10/21 00:39:36;;;;;;;3.90;2.27;;;13.20;99.90;;;;;;5113731;28;20683;-82
2021/10/21 00:42:01;;;;;;;4.47;2.70;;;13.20;99.90;;;;;;5113730;28;20170;-81
2021/10/21 00:44:27;;;;;;;5.90;2.97;;;13.30;99.90;;;;;;5098928;28;20276;-81
2021/10/21 00:46:54;;;;;;;5.37;2.50;;;13.20;99.90;;;;;;5093329;28;20185;-82
2021/10/21 00:49:20;;;;;;;5.10;2.20;;;13.30;99.90;;;;;;5093233;28;20503;-82
2021/10/21 00:51:45;;;;;;;4.10;3.07;;;13.20;99.90;;;;;;5092906;28;20460;-82
2021/10/21 00:54:11;;;;;;;4.87;2.47;;;13.20;99.90;;;;;;5093156;28;20233;-82
2021/10/21 00:56:37;;;;;;;4.77;1.97;;;13.20;99.90;;;;;;5093175;28;20630;-82
2021/10/21 00:59:04;;;;;;;3.00;2.20;;;13.10;99.90;;;;;;5094283;28;20204;-82
2021/10/21 01:01:32;;;;;;;4.17;3.10;;;13.10;99.90;;;;;;5113503;28;20169;-81
2021/10/21 01:03:58;;;;;;;5.77;3.20;;;13.10;99.90;;;;;;5113364;28;20416;-81
2021/10/21 01:06:24;;;;;;;5.63;3.00;;;13.10;99.90;;;;;;5112973;28;20476;-81
2021/10/21 01:08:52;;;;;;;9.10;4.30;;;13.00;99.90;;;;;;5095137;28;20217;-81
2021/10/21 01:11:18;;;;;;;9.30;4.17;;;13.00;99.90;;;;;;5113168;28;20215;-81
2021/10/21 01:13:44;;;;;;;6.60;3.40;;;13.00;99.90;;;;;;5113351;28;20427;-81
2021/10/21 01:16:12;;;;;;;7.90;3.50;;;12.90;99.90;;;;;;5112989;28;20475;-81
2021/10/21 01:18:39;;;;;;;6.90;4.20;;;12.90;99.90;;;;;;5113277;28;20162;-81
2021/10/21 01:21:06;;;;;;;6.00;3.57;;;12.80;99.90;;;;;;5112906;28;20417;-81
2021/10/21 01:23:33;;;;;;;6.60;3.60;;;12.80;99.90;;;;;;5107955;28;20423;-81
2021/10/21 01:25:59;;;;;;;7.80;3.87;;;12.80;99.90;;;;;;5074913;28;20499;-81
2021/10/21 01:28:25;;;;;;;5.47;3.50;;;12.80;99.90;;;;;;5092794;28;20445;-81
2021/10/21 01:30:51;;;;;;;7.70;3.30;;;12.80;99.90;;;;;;5092693;28;20430;-81
2021/10/21 01:33:17;;;;;;;5.77;3.60;;;12.90;99.90;;;;;;5095953;28;20250;-82
2021/10/21 01:35:43;;;;;;;6.00;2.30;;;12.90;99.90;;;;;;5097840;28;20466;-81
2021/10/21 01:38:09;;;;;;;3.83;2.83;;;13.00;99.90;;;;;;5092705;28;20178;-82
2021/10/21 01:40:34;;;;;;;4.13;3.07;;;13.00;99.90;;;;;;5074719;28;20989;-81
2021/10/21 01:43:00;;;;;;;4.07;2.73;;;13.10;99.90;;;;;;5092757;28;20167;-82
2021/10/21 01:45:29;;;;;;;4.30;2.90;;;13.10;99.90;;;;;;5105080;28;20644;-81
2021/10/21 01:47:56;;;;;;;2.93;1.77;;;13.20;99.90;;;;;;5112974;28;20167;-82
2021/10/21 01:50:22;;;;;;;2.93;2.00;;;13.20;99.90;;;;;;5094428;28;20411;-82
2021/10/21 01:52:48;;;;;;;4.77;2.00;;;13.20;99.90;;;;;;5113043;28;20498;-82
2021/10/21 01:55:15;;;;;;;4.90;2.30;;;13.20;99.90;;;;;;5109872;28;20471;-81
2021/10/21 01:57:41;;;;;;;5.27;2.40;;;13.20;99.90;;;;;;5092477;28;20436;-82
2021/10/21 02:00:09;;;;;;;4.53;2.20;;;13.20;99.90;;;;;;5074443;28;20428;-82
2021/10/21 02:02:35;;;;;;;4.50;1.97;;;13.20;99.90;;;;;;5092481;28;20171;-82
2021/10/21 02:05:02;;;;;;;4.97;2.53;;;13.20;99.90;;;;;;5094852;28;20415;-81
2021/10/21 02:07:27;;;;;;;5.23;1.83;;;13.20;99.90;;;;;;5093963;28;20424;-81
2021/10/21 02:09:53;;;;;;;3.73;2.13;;;13.20;99.90;;;;;;5074448;28;20418;-82
2021/10/21 02:12:19;;;;;;;3.57;2.17;;;13.20;99.90;;;;;;5074327;28;20184;-81
2021/10/21 02:14:44;;;;;;;3.57;2.27;;;13.20;99.90;;;;;;5092059;28;20265;-82
2021/10/21 02:17:10;;;;;;;3.30;2.10;;;13.20;99.90;;;;;;5092397;28;20418;-82
2021/10/21 02:19:36;;;;;;;4.47;3.17;;;13.20;99.90;;;;;;5092332;28;20534;-82
2021/10/21 02:22:03;;;;;;;4.00;2.27;;;13.20;99.90;;;;;;5091983;28;20183;-82
2021/10/21 02:24:29;;;;;;;3.63;2.50;;;13.20;99.90;;;;;;5095926;28;20248;-82
2021/10/21 02:26:55;;;;;;;3.87;1.97;;;13.20;99.90;;;;;;5095893;28;20470;-82
2021/10/21 02:29:21;;;;;;;6.70;2.77;;;13.20;99.90;;;;;;5095981;28;20900;-82
2021/10/21 02:31:47;;;;;;;4.40;2.20;;;13.10;99.90;;;;;;5095947;28;20688;-82
2021/10/21 02:34:12;;;;;;;4.33;2.73;;;13.20;99.90;;;;;;5095611;28;20206;-81
2021/10/21 02:36:38;;;;;;;5.63;4.77;;;13.10;99.90;;;;;;5095398;28;20210;-82
2021/10/21 02:39:04;;;;;;;5.10;2.77;;;13.10;99.90;;;;;;5097420;28;20492;-82
2021/10/21 02:41:30;;;;;;;3.73;1.63;;;13.00;99.90;;;;;;5115998;28;20519;-81
2021/10/21 02:43:56;;;;;;;3.80;2.50;;;13.00;99.90;;;;;;5116021;28;20415;-82
2021/10/21 02:46:21;;;;;;;3.17;1.80;;;13.00;99.90;;;;;;5110190;28;20160;-81
2021/10/21 02:48:47;;;;;;;5.10;3.00;;;13.00;99.90;;;;;;5095549;28;20175;-82
2021/10/21 02:51:13;;;;;;;5.13;2.40;;;13.00;99.90;;;;;;5095127;28;20252;-81
2021/10/21 02:53:39;;;;;;;3.63;2.83;;;13.00;99.90;;;;;;5095468;28;20175;-81
2021/10/21 02:56:04;;;;;;;6.90;2.60;;;13.00;99.90;;;;;;5077242;28;20249;-82
2021/10/21 02:58:30;;;;;;;4.33;2.20;;;13.00;99.90;;;;;;5109032;28;20234;-81
2021/10/21 03:00:56;;;;;;;6.37;2.50;;;13.00;99.90;;;;;;5097365;28;20171;-82
2021/10/21 03:03:22;;;;;;;4.00;1.77;;;12.90;99.90;;;;;;5115613;28;20634;-82
2021/10/21 03:05:47;;;;;;;3.33;2.90;;;12.90;99.90;;;;;;5115261;28;20412;-81
2021/10/21 03:08:13;;;;;;;4.70;1.90;;;12.90;99.90;;;;;;5097262;28;20299;-82
2021/10/21 03:10:38;;;;;;;3.90;2.03;;;12.90;99.90;;;;;;5115476;28;20246;-81
2021/10/21 03:13:04;;;;;;;3.40;2.07;;;12.90;99.90;;;;;;5115442;28;20192;-82
2021/10/21 03:15:29;;;;;;;4.83;2.20;;;12.90;99.90;;;;;;5115126;28;20266;-81
2021/10/21 03:17:56;;;;;;;5.13;2.50;;;12.90;99.90;;;;;;5115301;28;20182;-83
2021/10/21 03:20:22;;;;;;;4.10;2.23;;;12.90;99.90;;;;;;5114979;28;20209;-83
2021/10/21 03:22:48;;;;;;;5.07;3.50;;;13.00;99.90;;;;;;5115250;28;20476;-82
2021/10/21 03:25:14;;;;;;;5.03;3.30;;;13.00;99.90;;;;;;5115074;28;20496;-82
2021/10/21 03:27:40;;;;;;;4.20;2.03;;;13.00;99.90;;;;;;5100625;28;20449;-81
2021/10/21 03:30:08;;;;;;;3.27;1.87;;;12.90;99.90;;;;;;5094776;28;20628;-81
2021/10/21 03:32:34;;;;;;;3.10;1.90;;;12.90;99.90;;;;;;5094662;28;20784;-81
2021/10/21 03:35:00;;;;;;;4.33;1.87;;;12.80;99.90;;;;;;5082864;28;21074;-81
2021/10/21 03:37:27;;;;;;;4.97;2.27;;;12.90;99.90;;;;;;5094509;28;20553;-81
2021/10/21 03:39:52;;;;;;;5.00;2.40;;;12.90;99.90;;;;;;5094524;28;20548;-81
2021/10/21 03:42:22;;;;;;;7.10;3.20;;;12.90;99.90;;;;;;5094435;28;20420;-80
2021/10/21 03:44:49;;;;;;;3.83;2.40;;;13.00;99.90;;;;;;5094380;28;20552;-81
2021/10/21 03:47:15;;;;;;;5.83;3.53;;;13.00;99.90;;;;;;5114088;28;20450;-81
2021/10/21 03:49:46;;;;;;;6.50;3.03;;;13.10;99.90;;;;;;5114681;28;20416;-80
2021/10/21 03:52:12;;;;;;;5.33;4.00;;;13.20;99.90;;;;;;5114887;28;20420;-80
2021/10/21 03:54:37;;;;;;;3.90;2.50;;;13.20;99.90;;;;;;5114026;28;20840;-80
2021/10/21 03:57:03;;;;;;;8.10;3.60;;;13.30;99.90;;;;;;5114769;28;20236;-81
2021/10/21 03:59:29;;;;;;;5.70;3.37;;;13.40;99.90;;;;;;5096473;28;20170;-82
2021/10/21 04:01:54;;;;;;;7.30;3.70;;;13.30;99.90;;;;;;5096429;28;20183;-82
2021/10/21 04:04:20;;;;;;;5.30;3.30;;;13.40;99.90;;;;;;5114685;28;20170;-81
2021/10/21 04:06:46;;;;;;;3.90;3.07;;;13.40;99.90;;;;;;5114344;28;20556;-83
2021/10/21 04:09:13;;;;;;;2.97;2.57;;;13.50;99.90;;;;;;5114549;28;20747;-83
2021/10/21 04:11:39;;;;;;;4.90;3.80;;;;;;;;;;5114535;28;20413;-82
2021/10/21 04:14:05;;;;;;;4.63;2.67;;;;;;;;;;5114402;28;20513;-82
2021/10/21 04:16:31;;;;;;;6.00;2.60;;;13.70;99.90;;;;;;5100068;28;20988;-82
2021/10/21 04:18:57;;;;;;;4.13;2.40;;;;;;;;;;5094091;28;20416;-82
2021/10/21 04:21:22;;;;;;;5.13;3.47;;;13.80;99.90;;;;;;5093669;28;20881;-83
2021/10/21 04:23:48;;;;;;;4.43;3.10;;;13.80;99.90;;;;;;5093967;28;20416;-82
2021/10/21 04:26:14;;;;;;;4.50;2.83;;;13.90;99.90;;;;;;5093971;28;20226;-84
2021/10/21 04:28:40;;;;;;;8.97;2.67;;;;;;;;;;5093895;28;20192;-84
2021/10/21 04:31:06;;;;;;;5.73;1.53;;;13.10;99.90;;;;;;5093815;28;20411;-82
2021/10/21 04:33:32;;;;;;;2.60;0.80;;;12.50;99.90;;;;;;5098109;28;20414;-83
2021/10/21 04:35:57;;;;;;;1.60;0.70;;;12.20;99.90;;;;;;5113663;28;20296;-83
2021/10/21 04:38:23;;;;;;;1.23;0.50;;;;;;;;;;5114144;28;20170;-82
2021/10/21 04:40:49;;;;;;;2.73;0.90;;;11.90;99.90;;;;;;5097661;28;20174;-82
2021/10/21 04:43:17;;;;;;;1.83;0.93;;;11.80;99.90;;;;;;5093718;28;20771;-83
2021/10/21 04:45:43;;;;;;;3.13;1.07;;;11.70;99.90;;;;;;5074647;28;20262;-83
2021/10/21 04:48:09;;;;;;;1.17;0.60;;;11.70;99.90;;;;;;5093560;28;20450;-84
2021/10/21 04:50:34;;;;;;;1.60;0.87;;;11.70;99.90;;;;;;5093180;28;20266;-82
2021/10/21 04:53:00;;;;;;;1.07;0.50;;;11.70;99.90;;;;;;5110998;28;20639;-83
2021/10/21 04:55:26;;;;;;;2.40;0.93;;;11.80;99.90;;;;;;5113731;28;20202;-84
2021/10/21 04:57:52;;;;;;;5.30;1.10;;;11.70;99.90;;;;;;5095515;28;20179;-82
2021/10/21 05:00:19;;;;;;;1.90;0.40;;;11.70;99.90;;;;;;5113721;28;20453;-84
2021/10/21 05:02:47;;;;;;;1.90;0.87;;;11.80;99.90;;;;;;5113667;28;20410;-83
2021/10/21 05:05:13;;;;;;;3.30;0.97;;;11.80;99.90;;;;;;5113319;28;20452;-83
2021/10/21 05:07:38;;;;;;;3.73;0.90;;;11.80;99.90;;;;;;5113619;28;20417;-82
2021/10/21 05:10:05;;;;;;;2.73;1.13;;;11.90;99.90;;;;;;5113779;28;20534;-82
2021/10/21 05:12:31;;;;;;;1.63;0.60;;;11.80;99.90;;;;;;5113427;28;20193;-82
2021/10/21 05:14:57;;;;;;;1.57;1.07;;;11.70;99.90;;;;;;5095089;28;20461;-83
2021/10/21 05:17:23;;;;;;;1.40;0.67;;;11.70;99.90;;;;;;5101882;28;20181;-82
2021/10/21 05:19:49;;;;;;;2.10;0.47;;;11.80;99.90;;;;;;5092720;28;20222;-82
2021/10/21 05:22:15;;;;;;;2.20;0.80;;;;;;;;;;5092942;28;20207;-82
2021/10/21 05:24:41;;;;;;;1.53;0.57;;;11.80;99.90;;;;;;5093029;28;20411;-83
2021/10/21 05:27:08;;;;;;;1.87;0.43;;;12.00;99.90;;;;;;5093090;28;20535;-83
2021/10/21 05:29:35;;;;;;;3.63;0.50;;;12.10;99.90;;;;;;5092926;28;20422;-82
2021/10/21 05:32:07;;;;;;;2.23;0.80;;;12.10;99.90;;;;;;5092719;28;20406;-81
2021/10/21 05:34:37;;;;;;;1.90;0.40;;;12.10;99.90;;;;;;5092264;28;20443;-82
2021/10/21 05:37:04;;;;;;;1.33;0.40;;;12.00;99.90;;;;;;5092313;28;20485;-83
2021/10/21 05:39:31;;;;;;;1.23;0.27;;;12.00;99.90;;;;;;5112074;28;20420;-82
2021/10/21 05:41:57;;;;;;;2.00;0.37;;;12.00;99.90;;;;;;5113216;28;20414;-81
2021/10/21 05:44:25;;;;;;;4.60;2.20;;;12.00;99.90;;;;;;5106883;28;20416;-82
2021/10/21 05:46:52;;;;;;;5.80;0.60;;;11.90;99.90;;;;;;5092677;28;20415;-81
2021/10/21 05:49:18;;;;;;;2.90;1.33;;;11.90;99.90;;;;;;5108316;28;20776;-82
2021/10/21 05:51:44;;;;;;;1.73;0.53;;;12.00;99.90;;;;;;5111848;28;20508;-82
2021/10/21 05:54:12;;;;;;;2.10;0.30;;;11.90;99.90;;;;;;5077791;28;20430;-81
2021/10/21 05:56:38;;;;;;;2.17;0.27;;;11.90;99.90;;;;;;5092663;28;20603;-81
2021/10/21 05:59:03;;;;;;;1.00;0.43;;;11.80;99.90;;;;;;5095894;28;20427;-84
2021/10/21 06:01:29;;;;;;;2.63;0.50;;;11.90;99.90;;;;;;5096812;28;20188;-82
2021/10/21 06:03:55;;;;;;;6.47;1.20;;;11.80;99.90;;;;;;5096636;28;20179;-82
2021/10/21 06:06:20;;;;;;;1.80;0.37;;;11.80;99.90;;;;;;5096192;28;20199;-83
2021/10/21 06:08:46;;;;;;;1.80;0.40;;;11.90;99.90;;;;;;5096510;28;20529;-82
2021/10/21 06:11:13;;;;;;;0.90;0.20;;;11.80;99.90;;;;;;5096502;28;20173;-83
2021/10/21 06:13:41;;;;;;;1.17;0.60;;;11.90;99.90;;;;;;5096371;28;20419;-83
2021/10/21 06:16:08;;;;;;;1.27;0.30;;;11.90;99.90;;;;;;5096110;28;20577;-83
2021/10/21 06:18:34;;;;;;;2.90;0.40;;;12.00;99.90;;;;;;5096334;28;20463;-83
2021/10/21 06:21:02;;;;;;;1.70;0.30;;;12.00;99.90;;;;;;5095952;28;20415;-83
2021/10/21 06:23:28;;;;;;;1.40;0.20;;;12.00;99.90;;;;;;5096251;28;20419;-83
2021/10/21 06:25:54;;;;;;;1.50;0.33;;;12.00;99.90;;;;;;5096186;28;20936;-82
2021/10/21 06:28:20;;;;;;;1.97;0.20;;;11.90;99.90;;;;;;5096219;28;20181;-84
2021/10/21 06:30:47;;;;;;;1.23;0.20;;;11.80;99.90;;;;;;5096207;28;20164;-84
2021/10/21 06:33:13;;;;;;;1.00;0.20;;;11.80;99.90;;;;;;5095871;28;20484;-84
2021/10/21 06:35:42;;;;;;;4.30;0.20;;;11.60;99.90;;;;;;5095741;28;20463;-84
2021/10/21 06:38:08;;;;;;;1.17;0.30;;;11.50;99.90;;;;;;5114282;28;20451;-84
2021/10/21 06:40:34;;;;;;;1.73;0.27;;;;;;;;;;5116391;28;20557;-79
2021/10/21 06:43:00;;;;;;;2.70;0.50;;;;;;;;;;5115831;28;20210;-84
2021/10/21 06:45:26;;;;;;;1.10;0.20;;;;;;;;;;5095881;28;20403;-80
2021/10/21 06:47:52;;;;;;;2.13;0.30;;;;;;;;;;5095857;28;20408;-83
2021/10/21 06:50:19;;;;;;;2.33;0.20;;;;;;;;;;5095425;28;20774;-81
2021/10/21 06:52:45;;;;;;;1.60;0.20;;;;;;;;;;5077546;28;20417;-81
2021/10/21 06:55:15;;;;;;;2.63;0.33;;;;;;;;;;5097510;28;20454;-83
2021/10/21 06:57:51;;;;;;;2.20;0.43;;;;;;;;;;5116085;28;20427;-83
2021/10/21 07:00:18;;;;;;;2.00;0.30;;;;;;;;;;5115980;28;20409;-83
2021/10/21 07:02:44;;;;;;;0.80;0.60;;;;;;;;;;5115872;28;20450;-82
2021/10/21 07:05:10;;;;;;;4.03;1.20;;;;;;;;;;5115495;28;20401;-82
2021/10/21 07:07:36;;;;;;;1.67;0.40;;;11.30;99.90;;;;;;5115845;28;20406;-82
2021/10/21 07:10:05;;;;;;;1.30;0.70;;;11.30;99.90;;;;;;5115408;28;20451;-83
2021/10/21 07:12:38;;;;;;;1.60;0.67;;;11.20;99.90;;;;;;5100808;28;20643;-83
2021/10/21 07:15:06;;;;;;;1.50;0.30;;;;;;;;;;5094924;28;20457;-83
2021/10/21 07:17:32;;;;;;;3.13;0.33;;;11.20;99.90;;;;;;5095309;28;20420;-83
2021/10/21 07:19:58;;;;;;;1.47;0.50;;;;;;;;;;5076777;28;20840;-83
2021/10/21 07:22:24;;;;;;;4.20;0.50;;;11.20;99.90;;;;;;5095083;28;20508;-86
2021/10/21 07:24:49;;;;;;;5.10;1.13;;;11.20;99.90;;;;;;5060336;28;20508;-84
2021/10/21 07:27:15;;;;;;;2.00;1.07;;;11.20;99.90;;;;;;5094850;28;20167;-83
2021/10/21 07:29:41;;;;;;;3.10;0.97;;;11.10;99.90;;;;;;5094942;28;20632;-83
2021/10/21 07:32:07;;;;;;;1.13;0.20;;;11.10;99.90;;;;;;5099991;28;20636;-84
2021/10/21 07:34:32;;;;;;;3.63;0.63;;;11.00;99.90;;;;;;5108089;28;20241;-83
2021/10/21 07:36:58;;;;;;;1.80;0.87;;;11.00;99.90;;;;;;5115235;28;20210;-85
2021/10/21 07:39:25;;;;;;;1.73;0.50;;;10.90;99.90;;;;;;5115199;28;20167;-85
2021/10/21 07:41:52;;;;;;;1.60;0.30;;;10.90;99.90;;;;;;5101395;28;20184;-83
2021/10/21 07:44:19;;;;;;;5.83;0.60;;;10.90;99.90;;;;;;5094757;28;20415;-83
2021/10/21 07:46:46;;;;;;;2.77;0.53;;;;;;;;;;5094580;28;20421;-84
2021/10/21 07:49:15;;;;;;;2.20;0.50;;;10.90;99.90;;;;;;5094231;28;20841;-83
2021/10/21 07:51:41;;;;;;;1.27;0.37;;;10.90;99.90;;;;;;5096782;28;20848;-83
2021/10/21 07:54:07;;;;;;;3.73;0.50;;;10.80;99.90;;;;;;5094430;28;20413;-82
2021/10/21 07:56:33;;;;;;;1.03;0.60;;;10.70;99.90;;;;;;5094405;28;20469;-83
2021/10/21 07:59:00;;;;;;;1.80;0.50;;;10.60;99.90;;;;;;5094464;28;20620;-82
2021/10/21 08:01:26;;;;;;;4.10;0.53;;;10.50;99.90;;;;;;5108615;28;20187;-82
2021/10/21 08:03:53;;;;;;;1.00;0.20;;;10.50;99.90;;;;;;5114436;28;20413;-82
2021/10/21 08:06:19;;;;;;;1.13;0.20;;;10.40;99.90;;;;;;5114562;28;20644;-83
2021/10/21 08:08:45;;;;;;;0.93;0.20;;;10.40;99.90;;;;;;5114559;28;20507;-81
2021/10/21 08:11:10;;;;;;;1.10;0.20;;;10.40;99.90;;;;;;5114473;28;20175;-81
2021/10/21 08:13:36;;;;;;;1.00;0.27;;;10.40;99.90;;;;;;5114487;28;20163;-81
2021/10/21 08:16:01;;;;;;;0.30;0.20;;;10.30;99.90;;;;;;5114176;28;20715;-82
2021/10/21 08:18:28;;;;;;;1.60;0.23;;;10.30;99.90;;;;;;5114478;28;20296;-82
2021/10/21 08:20:54;;;;;;;1.53;0.20;;;10.30;99.90;;;;;;5113364;28;20190;-82
2021/10/21 08:23:19;;;;;;;0.93;0.20;;;10.40;99.90;;;;;;5114314;28;20442;-82
2021/10/21 08:25:45;;;;;;;1.30;0.20;;;10.40;99.90;;;;;;5114348;28;20456;-83
2021/10/21 08:28:11;;;;;;;0.40;0.20;;;10.40;99.90;;;;;;5114204;28;20170;-83
2021/10/21 08:30:40;;;;;;;1.97;0.27;;;10.40;99.90;;;;;;5096050;28;20178;-82
2021/10/21 08:33:06;;;;;;;1.03;0.20;;;10.40;99.90;;;;;;5112961;28;20177;-82
2021/10/21 08:35:33;;;;;;;0.40;0.20;;;10.40;99.90;;;;;;5093168;28;21032;-81
2021/10/21 08:38:00;;;;;;;2.10;0.43;;;10.40;99.90;;;;;;5093679;28;20421;-83
2021/10/21 08:40:27;;;;;;;1.73;0.30;;;10.40;99.90;;;;;;5093549;28;20905;-84
2021/10/21 08:42:52;;;;;;;0.40;0.20;;;10.40;99.90;;;;;;5093693;28;20934;-82
2021/10/21 08:45:19;;;;;;;0.50;0.30;;;10.30;99.90;;;;;;5112720;28;20501;-83
2021/10/21 08:47:48;;;;;;;0.50;0.20;;;10.30;99.90;;;;;;5113898;28;20219;-84
2021/10/21 08:50:15;;;;;;;0.90;0.20;;;10.30;99.90;;;;;;5095299;28;20828;-85
2021/10/21 08:52:42;;;;;;;1.73;0.20;;;10.30;99.90;;;;;;5111208;28;20775;-84
2021/10/21 08:55:08;;;;;;;1.93;0.20;;;10.30;99.90;;;;;;5093349;28;20424;-86
2021/10/21 08:57:34;;;;;;;1.63;0.40;;;10.10;99.90;;;;;;5093398;28;20516;-82
2021/10/21 09:00:00;;;;;;;0.50;0.30;;;10.10;99.90;;;;;;5093447;28;20477;-82
2021/10/21 09:02:37;;;;;;;1.50;0.20;;;10.20;99.90;;;;;;5093329;28;20924;-84
2021/10/21 09:05:13;;;;;;;2.10;0.20;;;10.20;99.90;;;;;;5093013;28;20449;-84
2021/10/21 09:08:00;;;;;;;1.33;0.20;;;10.30;99.90;;;;;;5075337;28;20421;-83
2021/10/21 09:10:26;;;;;;;0.93;0.30;;;10.40;99.90;;;;;;5093319;28;20915;-81
2021/10/21 09:12:52;;;;;;;2.33;0.43;;;10.40;99.90;;;;;;5093243;28;20448;-82
2021/10/21 09:15:21;;;;;;;2.20;0.20;;;10.40;99.90;;;;;;5092996;28;20534;-82
2021/10/21 09:17:47;;;;;;;1.77;0.30;;;10.50;99.90;;;;;;5075051;28;20944;-85
2021/10/21 09:20:35;;;;;;;1.33;0.30;;;10.50;99.90;;;;;;5092809;28;20413;-83
2021/10/21 09:23:05;;;;;;;1.70;0.40;;;10.60;99.90;;;;;;5093731;28;20765;-83
2021/10/21 09:25:31;;;;;;;1.23;0.43;;;10.50;99.90;;;;;;5113539;28;20782;-84
2021/10/21 09:27:58;;;;;;;2.27;0.50;;;10.60;99.90;;;;;;5113405;28;20412;-82
2021/10/21 09:30:31;;;;;;;1.50;0.30;;;10.60;99.90;;;;;;5113414;28;20178;-82
2021/10/21 09:33:06;;;;;;;1.00;0.40;;;10.70;99.90;;;;;;5116640;28;20434;-82
2021/10/21 09:35:35;;;;;;;2.03;0.20;;;10.70;99.90;;;;;;5104664;28;20495;-81
2021/10/21 09:38:01;;;;;;;1.53;0.30;;;10.70;99.90;;;;;;5097193;28;20755;-82
2021/10/21 09:40:34;;;;;;;2.57;0.30;;;10.70;99.90;;;;;;5109557;28;20477;-83
2021/10/21 09:43:05;;;;;;;3.50;0.50;;;10.70;99.90;;;;;;5117596;28;20408;-82
2021/10/21 09:45:35;;;;;;;6.00;0.60;;;10.80;99.90;;;;;;5117458;28;20648;-81
2021/10/21 09:48:03;;;;;;;2.67;0.53;;;10.70;99.90;;;;;;5117275;28;20471;-82
2021/10/21 09:50:37;;;;;;;2.03;0.20;;;10.60;99.90;;;;;;5116917;28;20972;-82
2021/10/21 09:53:02;;;;;;;6.30;1.03;;;10.70;99.90;;;;;;5099003;28;20408;-82
2021/10/21 09:55:28;;;;;;;5.00;0.63;;;10.70;99.90;;;;;;5096842;28;20450;-82
2021/10/21 09:58:05;;;;;;;2.90;0.40;;;10.70;99.90;;;;;;5094097;28;20192;-82
2021/10/21 10:00:36;;;;;;;2.57;0.70;;;10.80;99.90;;;;;;5117173;28;20159;-84
2021/10/21 10:03:19;;;;;;;2.67;0.40;;;11.00;99.90;;;;;;5117112;28;20422;-82
2021/10/21 10:05:47;;;;;;;3.03;0.43;;;11.20;99.90;;;;;;5098438;28;20502;-82
2021/10/21 10:08:15;;;;;;;7.93;0.57;;;11.30;99.90;;;;;;5116993;28;20406;-82
2021/10/21 10:10:42;;;;;;;2.33;0.20;;;11.20;99.90;;;;;;5116942;28;20496;-83
2021/10/21 10:13:10;;;;;;;4.77;0.30;;;11.10;99.90;;;;;;5098504;28;20923;-83
2021/10/21 10:15:36;;;;;;;2.00;0.30;;;11.00;99.90;;;;;;5116523;28;20476;-84
2021/10/21 10:18:05;;;;;;;2.57;0.20;;;10.90;99.90;;;;;;5104237;28;20422;-85
2021/10/21 10:20:31;;;;;;;3.43;0.30;;;10.90;99.90;;;;;;5106245;28;20499;-83
2021/10/21 10:23:01;;;;;;;3.20;0.40;;;10.80;99.90;;;;;;5116789;28;20828;-84
2021/10/21 10:25:27;;;;;;;1.40;0.23;;;10.70;99.90;;;;;;5109995;28;20184;-85
2021/10/21 10:28:04;;;;;;;1.23;0.33;;;10.80;99.90;;;;;;5114271;28;20511;-83
2021/10/21 10:30:59;;;;;;;2.10;0.20;;;10.70;99.90;;;;;;5108464;28;20515;-82
2021/10/21 10:33:45;;;;;;;0.40;0.20;;;10.70;99.90;;;;;;5082259;28;20956;-84
2021/10/21 10:36:25;;;;;;;1.23;0.20;;;10.60;99.90;;;;;;5094380;28;20905;-84
2021/10/21 10:38:51;;;;;;;2.00;0.20;;;10.50;99.90;;;;;;5095956;28;20433;-83
2021/10/21 10:41:41;;;;;;;0.50;0.20;;;10.60;99.90;;;;;;5096030;28;20417;-83
2021/10/21 10:44:30;;;;;;;1.23;0.20;;;10.50;99.90;;;;;;5077047;28;20418;-84
2021/10/21 10:46:56;;;;;;;2.10;0.30;;;10.50;99.90;;;;;;5048465;28;20408;-83
2021/10/21 10:49:39;;;;;;;2.97;0.37;;;10.60;99.90;;;;;;5095383;28;20409;-83
2021/10/21 10:52:13;;;;;;;3.10;0.40;;;10.60;99.90;;;;;;5095762;28;20228;-83
2021/10/21 10:54:50;;;;;;;0.70;0.20;;;11.00;99.90;;;;;;5095722;28;20405;-83
2021/10/21 10:57:25;;;;;;;1.77;0.30;;;11.40;99.90;;;;;;5077449;28;21010;-84
2021/10/21 10:59:58;;;;;;;1.40;0.20;;;11.50;99.90;;;;;;5095631;28;20501;-83
2021/10/21 11:02:26;;;;;;;2.20;0.30;;;11.40;99.90;;;;;;5095459;28;20419;-83
2021/10/21 11:04:52;;;;;;;5.37;0.20;;;11.30;99.90;;;;;;5095256;28;20796;-83
2021/10/21 11:07:22;;;;;;;2.20;0.30;;;11.30;99.90;;;;;;5077230;28;21079;-83
2021/10/21 11:09:49;;;;;;;1.70;0.20;;;11.60;99.90;;;;;;5095342;28;20204;-83
2021/10/21 11:12:24;;;;;;;3.20;0.20;;;11.50;99.90;;;;;;5095358;28;20817;-83
2021/10/21 11:14:55;;;;;;;3.77;0.60;;;11.30;99.90;;;;;;5095190;28;20541;-85
2021/10/21 11:17:53;;;;;;;3.53;0.40;;;11.30;99.90;;;;;;5095265;28;20502;-83
2021/10/21 11:20:27;;;;;;;3.63;0.43;;;11.20;99.90;;;;;;5039622;28;20481;-83
2021/10/21 11:23:04;;;;;;;6.17;0.33;;;12.00;99.90;;;;;;5076958;28;20944;-85
2021/10/21 11:25:35;;;;;;;3.67;0.30;;;12.50;99.90;;;;;;5095322;28;20400;-91
2021/10/21 11:28:02;;;;;;;2.07;0.20;;;14.10;99.90;;;;;;5095089;28;20425;-82
2021/10/21 11:30:30;;;;;;;3.27;0.30;;;14.00;99.90;;;;;;5094922;28;20403;-80
2021/10/21 11:32:58;;;;;;;3.70;0.43;;;13.50;99.90;;;;;;5094984;28;20429;-83
2021/10/21 11:35:29;;;;;;;3.20;0.93;;;14.30;99.90;;;;;;5094464;28;20458;-82
2021/10/21 11:38:09;;;;;;;5.13;0.50;;;16.40;99.90;;;;;;5094790;28;20417;-82
2021/10/21 11:40:43;;;;;;;2.30;0.30;;;15.20;99.90;;;;;;5094898;28;20395;-82
2021/10/21 11:43:25;;;;;;;4.33;0.60;;;14.80;99.90;;;;;;5094788;28;20415;-83
2021/10/21 11:45:56;;;;;;;3.90;0.43;;;17.70;99.90;;;;;;5094776;28;20431;-84
2021/10/21 11:48:32;;;;;;;3.60;0.57;;;18.20;99.90;;;;;;5094191;28;20416;-85
2021/10/21 11:50:59;;;;;;;5.13;0.50;;;18.70;99.90;;;;;;5094650;28;20406;-83
2021/10/21 11:53:27;;;;;;;2.60;0.40;;;18.50;99.90;;;;;;5076600;28;20459;-84
2021/10/21 11:55:55;;;;;;;3.80;0.83;;;19.40;99.90;;;;;;5093393;28;20487;-84
2021/10/21 11:58:25;;;;;;;4.50;0.43;;;19.30;99.90;;;;;;5094502;28;20441;-85
2021/10/21 12:00:55;;;;;;;1.97;0.40;;;17.40;99.90;;;;;;5094427;28;20484;-83
2021/10/21 12:03:38;;;;;;;2.30;0.27;;;15.00;99.90;;;;;;5075885;28;20770;-83
2021/10/21 12:06:05;;;;;;;5.97;0.70;;;13.90;99.90;;;;;;5094339;28;20416;-85
2021/10/21 12:08:31;;;;;;;2.60;0.30;;;13.20;99.90;;;;;;5094103;28;20423;-82
2021/10/21 12:10:59;;;;;;;2.60;0.37;;;12.80;99.90;;;;;;5094152;28;20396;-83
2021/10/21 12:13:30;;;;;;;8.93;0.73;;;12.30;99.90;;;;;;5094046;28;20255;-84
2021/10/21 12:16:00;;;;;;;2.30;0.40;;;12.10;99.90;;;;;;5093870;28;20798;-82
2021/10/21 12:18:30;;;;;;;4.13;0.50;;;12.00;99.90;;;;;;5075648;28;20448;-83
2021/10/21 12:20:59;;;;;;;3.93;0.73;;;11.90;99.90;;;;;;5094017;28;20417;-83
2021/10/21 12:23:29;;;;;;;4.53;0.40;;;11.90;99.90;;;;;;5093910;28;20761;-84
2021/10/21 12:26:00;;;;;;;2.23;0.30;;;11.90;99.90;;;;;;5093965;28;20769;-83
2021/10/21 12:28:47;;;;;;;5.73;0.43;;;12.00;99.90;;;;;;5093846;28;20413;-83
2021/10/21 12:31:30;;;;;;;4.87;0.43;;;12.20;99.90;;;;;;5093801;28;20469;-82
2021/10/21 12:34:01;;;;;;;6.53;0.67;;;12.30;99.90;;;;;;5075306;28;20477;-83
2021/10/21 12:36:34;;;;;;;5.87;0.33;;;12.30;99.90;;;;;;5075527;28;20892;-85
2021/10/21 12:39:12;;;;;;;5.47;0.73;;;12.10;99.90;;;;;;5093814;28;20402;-83
2021/10/21 12:41:56;;;;;;;8.43;0.70;;;12.00;99.90;;;;;;5093491;28;20759;-83
2021/10/21 12:44:24;;;;;;;4.13;0.60;;;11.70;99.90;;;;;;5093694;28;20491;-83
2021/10/21 12:47:05;;;;;;;4.10;0.87;;;11.50;99.90;;;;;;5093569;28;20421;-83
2021/10/21 12:49:30;;;;;;;6.63;0.60;;;11.50;99.90;;;;;;5075083;28;20919;-83
2021/10/21 12:52:08;;;;;;;4.07;0.43;;;11.50;99.90;;;;;;5075366;28;20473;-84
2021/10/21 12:54:38;;;;;;;4.17;0.37;;;11.50;99.90;;;;;;5093533;28;20177;-82
2021/10/21 12:57:07;;;;;;;4.10;0.50;;;11.30;99.90;;;;;;5093257;28;20479;-83